Time;durP1;ratioP1;P1;durP2;ratioP2;P2;SDS_P1;SDS_P2;PMS_P1;PMS_P2;Temp;Humidity;BMP_temperature;BMP_pressure;BME280_temperature;BME280_humidity;BME280_pressure;Samples;Min_cycle;Max_cycle;Signal;HPM_P1;HPM_P2
2022/01/25 00:33:29;;;;;;;8.67;5.27;;;4.90;64.40;;;;;;5073358;28;20028;-79
2022/01/25 00:35:56;;;;;;;7.00;5.00;;;4.90;64.40;;;;;;5073251;28;20040;-79
2022/01/25 00:38:22;;;;;;;7.13;5.27;;;4.90;64.30;;;;;;5073316;28;20094;-79
2022/01/25 00:40:47;;;;;;;5.90;4.60;;;4.90;64.50;;;;;;5073521;28;20457;-80
2022/01/25 00:43:13;;;;;;;7.20;5.00;;;4.90;64.40;;;;;;5073359;28;20384;-80
2022/01/25 00:45:39;;;;;;;8.03;4.83;;;4.90;64.20;;;;;;5072155;28;20059;-79
2022/01/25 00:48:07;;;;;;;6.17;4.77;;;4.90;64.10;;;;;;5073080;28;20029;-80
2022/01/25 00:50:39;;;;;;;6.90;5.00;;;4.90;64.10;;;;;;5073239;28;20479;-80
2022/01/25 00:55:32;;;;;;;6.77;5.10;;;4.90;64.00;;;;;;5073603;28;20503;-79
2022/01/25 00:57:59;;;;;;;6.50;4.70;;;4.90;64.00;;;;;;5072871;28;20017;-79
2022/01/25 01:00:26;;;;;;;7.00;5.03;;;4.90;64.10;;;;;;5072975;28;20017;-79
2022/01/25 01:02:52;;;;;;;6.40;4.60;;;4.90;64.00;;;;;;5073128;28;20017;-79
2022/01/25 01:05:18;;;;;;;7.37;5.10;;;4.90;64.00;;;;;;5073027;28;20037;-78
2022/01/25 01:07:44;;;;;;;7.43;5.13;;;4.90;63.90;;;;;;5073127;28;20063;-79
2022/01/25 01:10:14;;;;;;;7.23;5.07;;;4.90;63.90;;;;;;5072678;28;20063;-80
2022/01/25 01:15:41;;;;;;;6.63;4.87;;;4.90;64.00;;;;;;5073355;28;20098;-80
2022/01/25 01:29:57;;;;;;;6.37;4.57;;;4.90;64.20;;;;;;5072807;28;20077;-79
2022/01/25 01:47:36;;;;;;;7.27;5.20;;;4.90;64.30;;;;;;5073064;28;20119;-79
2022/01/25 01:50:08;;;;;;;6.20;4.53;;;4.90;64.30;;;;;;5073010;28;20066;-79
2022/01/25 01:52:34;;;;;;;8.90;5.50;;;4.90;64.30;;;;;;5072875;28;20453;-78
2022/01/25 01:55:00;;;;;;;7.00;4.90;;;4.90;64.30;;;;;;5072489;28;20029;-79
2022/01/25 01:57:26;;;;;;;7.93;5.07;;;4.90;64.30;;;;;;5072209;28;20091;-80
2022/01/25 01:59:53;;;;;;;7.53;4.80;;;4.90;64.40;;;;;;5068992;28;20039;-79
2022/01/25 02:02:19;;;;;;;7.37;4.97;;;4.90;64.50;;;;;;5069830;28;20396;-80
2022/01/25 02:04:45;;;;;;;7.60;5.00;;;4.90;64.50;;;;;;5070988;28;20025;-79
2022/01/25 02:07:11;;;;;;;10.03;5.37;;;4.90;64.60;;;;;;5072111;28;20033;-79
2022/01/25 02:09:36;;;;;;;8.43;5.10;;;4.90;64.70;;;;;;5072318;28;20481;-80
2022/01/25 02:12:02;;;;;;;9.73;5.20;;;4.90;64.60;;;;;;5072226;28;20025;-80
2022/01/25 02:14:28;;;;;;;8.27;5.80;;;4.90;65.00;;;;;;5071994;28;20377;-79
2022/01/25 02:17:06;;;;;;;7.73;5.30;;;4.80;65.00;;;;;;5071012;28;20037;-78
2022/01/25 02:22:29;;;;;;;7.87;4.70;;;4.80;65.80;;;;;;5072167;28;20036;-80
2022/01/25 02:24:55;;;;;;;6.80;5.17;;;4.90;65.20;;;;;;5076042;28;20051;-79
2022/01/25 02:27:21;;;;;;;8.57;5.30;;;4.90;65.00;;;;;;5076083;28;20028;-80
2022/01/25 02:29:47;;;;;;;9.90;5.40;;;4.90;65.00;;;;;;5075853;28;20023;-80
2022/01/25 02:32:13;;;;;;;7.60;5.03;;;4.90;65.20;;;;;;5076018;28;20112;-80
2022/01/25 02:34:38;;;;;;;8.07;5.03;;;4.90;65.30;;;;;;5075352;28;20381;-80
2022/01/25 02:37:11;;;;;;;8.80;5.03;;;4.90;65.30;;;;;;5075501;28;20459;-80
2022/01/25 02:39:38;;;;;;;;;;;4.90;65.20;;;;;;5076152;28;20036;-79
2022/01/25 02:42:05;;;;;;;6.93;5.23;;;4.90;65.70;;;;;;5075836;28;19911;-80
2022/01/25 02:44:33;;;;;;;8.10;5.40;;;4.80;65.60;;;;;;5075366;28;20028;-80
2022/01/25 02:49:33;;;;;;;7.23;5.13;;;4.90;65.70;;;;;;5075116;28;20020;-79
2022/01/25 02:52:02;;;;;;;8.60;5.70;;;4.90;65.90;;;;;;5075096;28;20021;-79
2022/01/25 02:54:28;;;;;;;7.60;5.63;;;4.90;65.90;;;;;;5075315;28;20027;-79
2022/01/25 02:56:54;;;;;;;8.90;5.97;;;4.90;65.50;;;;;;5075081;28;20021;-79
2022/01/25 02:59:20;;;;;;;9.80;6.83;;;4.90;65.20;;;;;;5074596;28;20362;-80
2022/01/25 03:01:47;;;;;;;12.60;7.03;;;4.90;65.20;;;;;;5074986;28;20050;-79
2022/01/25 03:04:15;;;;;;;11.17;7.37;;;4.90;65.30;;;;;;5074952;28;20081;-79
2022/01/25 03:06:44;;;;;;;10.10;7.70;;;4.80;65.40;;;;;;5074805;28;20064;-79
2022/01/25 03:09:11;;;;;;;13.10;7.60;;;4.80;65.40;;;;;;5075075;28;20531;-81
2022/01/25 03:11:36;;;;;;;11.70;7.50;;;4.80;65.50;;;;;;5074869;28;20059;-81
2022/01/25 03:14:07;;;;;;;13.00;8.20;;;4.80;65.40;;;;;;5074929;28;20057;-80
2022/01/25 03:16:41;;;;;;;12.70;7.73;;;4.70;65.60;;;;;;5074449;28;20510;-80
2022/01/25 03:21:59;;;;;;;10.47;7.53;;;4.70;65.90;;;;;;5074795;28;20044;-79
2022/01/25 03:24:26;;;;;;;10.87;8.03;;;4.70;65.90;;;;;;5074509;28;20063;-80
2022/01/25 03:26:53;;;;;;;10.80;7.40;;;4.70;67.00;;;;;;5074541;28;20416;-79
2022/01/25 03:29:19;;;;;;;13.70;7.80;;;4.70;66.80;;;;;;5074881;28;20043;-79
2022/01/25 03:31:45;;;;;;;11.73;8.33;;;4.70;66.90;;;;;;5074698;28;20024;-81
2022/01/25 03:34:11;;;;;;;12.30;8.30;;;4.70;66.90;;;;;;5074667;28;20081;-79
2022/01/25 03:36:37;;;;;;;13.10;8.43;;;4.70;66.80;;;;;;5074336;28;20115;-79
2022/01/25 03:39:05;;;;;;;14.73;9.27;;;4.60;66.90;;;;;;5074403;28;20021;-79
2022/01/25 03:41:31;;;;;;;13.43;8.93;;;4.60;67.00;;;;;;5074261;28;20059;-79
2022/01/25 03:43:57;;;;;;;13.07;9.13;;;4.60;67.10;;;;;;5074549;28;20021;-79
2022/01/25 03:46:52;;;;;;;13.00;9.47;;;4.60;66.90;;;;;;5074098;28;20033;-79
2022/01/25 03:52:03;;;;;;;14.03;10.10;;;4.60;66.70;;;;;;5074118;28;20163;-79
2022/01/25 03:54:29;;;;;;;16.20;9.67;;;4.60;66.50;;;;;;5073870;28;20020;-80
2022/01/25 03:56:54;;;;;;;15.50;10.03;;;4.60;66.60;;;;;;5074039;28;20020;-80
2022/01/25 03:59:20;;;;;;;11.90;8.77;;;4.60;67.10;;;;;;5073927;28;20025;-79
2022/01/25 04:01:46;;;;;;;14.13;10.07;;;4.60;67.20;;;;;;5074048;28;20027;-78
2022/01/25 04:04:15;;;;;;;18.67;10.20;;;4.50;67.70;;;;;;5074083;28;20350;-79
2022/01/25 04:06:47;;;;;;;16.47;10.67;;;4.50;67.70;;;;;;5074011;28;20090;-79
2022/01/25 04:09:12;;;;;;;15.93;10.67;;;4.50;68.00;;;;;;5073820;28;20044;-79
2022/01/25 04:11:38;;;;;;;16.33;10.60;;;4.50;68.30;;;;;;5072563;28;20055;-79
2022/01/25 04:14:04;;;;;;;14.73;9.83;;;4.50;68.10;;;;;;5073638;28;20019;-79
2022/01/25 04:16:38;;;;;;;15.27;9.63;;;4.50;68.20;;;;;;5074024;28;20055;-79
2022/01/25 04:19:18;;;;;;;13.23;9.40;;;4.50;68.50;;;;;;5074230;28;20082;-79
2022/01/25 04:24:54;;;;;;;16.90;10.60;;;4.50;68.30;;;;;;5073917;28;20534;-78
2022/01/25 04:27:21;;;;;;;22.83;10.50;;;4.50;68.30;;;;;;5073586;28;20098;-78
2022/01/25 04:29:46;;;;;;;15.57;10.67;;;4.50;68.20;;;;;;5073649;28;20442;-79
2022/01/25 04:32:14;;;;;;;20.67;10.07;;;4.50;68.10;;;;;;5073504;28;20107;-78
2022/01/25 04:34:47;;;;;;;19.77;9.63;;;4.50;68.40;;;;;;5074032;28;20358;-79
2022/01/25 04:53:31;;;;;;;19.10;10.23;;;4.40;68.50;;;;;;5073255;28;20503;-78
2022/01/25 04:56:12;;;;;;;15.50;10.53;;;4.40;68.60;;;;;;5073133;28;20052;-80
2022/01/25 04:58:47;;;;;;;17.93;10.93;;;4.40;68.90;;;;;;5072925;28;20107;-79
2022/01/25 05:01:12;;;;;;;20.57;10.80;;;4.40;69.20;;;;;;5073246;28;20124;-79
2022/01/25 05:03:55;;;;;;;17.47;10.20;;;4.40;69.20;;;;;;5073012;28;20107;-79
2022/01/25 05:06:21;;;;;;;22.85;11.75;;;4.40;69.30;;;;;;5073234;28;20556;-79
2022/01/25 05:08:52;;;;;;;24.57;11.47;;;4.40;69.60;;;;;;5072766;28;20017;-78
2022/01/25 05:11:27;;;;;;;15.40;10.10;;;4.40;69.80;;;;;;5072996;28;20025;-78
2022/01/25 05:24:26;;;;;;;18.77;11.90;;;4.40;69.60;;;;;;5072938;28;20051;-79
2022/01/25 05:26:52;;;;;;;17.30;11.50;;;4.40;69.90;;;;;;5072630;28;20036;-79
2022/01/25 05:29:18;;;;;;;16.53;11.67;;;4.40;70.00;;;;;;5072539;28;20028;-79
2022/01/25 05:31:44;;;;;;;20.33;11.23;;;4.40;70.20;;;;;;5072702;28;20024;-79
2022/01/25 05:34:10;;;;;;;21.60;11.60;;;4.40;70.20;;;;;;5072754;28;20024;-79
2022/01/25 05:36:36;;;;;;;21.97;11.87;;;4.40;70.20;;;;;;5071266;28;20017;-79
2022/01/25 05:39:10;;;;;;;19.70;11.70;;;4.40;70.10;;;;;;5072403;28;20077;-79
2022/01/25 05:41:36;;;;;;;23.20;12.40;;;4.40;70.20;;;;;;5072550;28;20039;-80
2022/01/25 05:47:05;;;;;;;18.57;11.70;;;4.30;70.20;;;;;;5072431;28;20043;-80
2022/01/25 05:49:35;;;;;;;18.00;11.87;;;4.30;70.70;;;;;;5072562;28;20031;-79
2022/01/25 05:52:01;;;;;;;17.40;12.27;;;4.30;70.70;;;;;;5072605;28;20039;-78
2022/01/25 05:54:27;;;;;;;22.27;12.77;;;4.30;70.50;;;;;;5072497;28;20021;-79
2022/01/25 05:56:52;;;;;;;22.87;12.33;;;4.30;70.60;;;;;;5072308;28;20033;-80
2022/01/25 05:59:18;;;;;;;19.77;11.60;;;4.30;70.20;;;;;;5075828;28;20375;-79
2022/01/25 06:01:45;;;;;;;18.90;11.73;;;4.30;70.10;;;;;;5076388;28;20028;-80
2022/01/25 06:04:11;;;;;;;19.37;11.57;;;4.30;70.40;;;;;;5076301;28;20047;-80
2022/01/25 06:06:37;;;;;;;18.07;11.00;;;4.30;70.60;;;;;;5076169;28;20393;-79
2022/01/25 06:09:03;;;;;;;18.13;11.23;;;4.30;70.90;;;;;;5076115;28;20025;-81
2022/01/25 06:11:29;;;;;;;17.27;11.47;;;4.30;71.20;;;;;;5076235;28;20020;-81
2022/01/25 06:13:55;;;;;;;17.90;10.90;;;4.30;71.30;;;;;;5076328;28;20025;-80
2022/01/25 06:16:20;;;;;;;20.90;11.57;;;4.30;71.40;;;;;;5076035;28;20102;-80
2022/01/25 06:18:46;;;;;;;18.23;11.13;;;4.30;71.10;;;;;;5076241;28;20021;-79
2022/01/25 06:21:12;;;;;;;20.53;11.87;;;4.30;71.00;;;;;;5075972;28;20148;-80
2022/01/25 06:23:37;;;;;;;20.70;12.70;;;4.30;70.80;;;;;;5076080;28;20461;-80
2022/01/25 06:26:03;;;;;;;24.73;12.80;;;4.30;70.70;;;;;;5075874;28;20086;-80
2022/01/25 06:28:29;;;;;;;20.13;12.67;;;4.30;70.50;;;;;;5075890;28;20012;-80
2022/01/25 06:30:55;;;;;;;23.07;13.80;;;4.30;70.50;;;;;;5075963;28;20484;-80
2022/01/25 06:33:21;;;;;;;22.67;11.83;;;4.30;70.80;;;;;;5075872;28;20047;-80
2022/01/25 06:35:47;;;;;;;21.90;12.23;;;4.30;71.00;;;;;;5075925;28;20027;-79
2022/01/25 06:38:14;;;;;;;17.83;10.87;;;4.30;71.30;;;;;;5075663;28;20025;-80
2022/01/25 06:40:40;;;;;;;25.73;11.77;;;4.30;71.20;;;;;;5075490;28;20024;-79
2022/01/25 06:43:06;;;;;;;29.63;11.57;;;4.30;71.30;;;;;;5074063;28;20406;-79
2022/01/25 06:45:32;;;;;;;24.70;11.47;;;4.30;71.20;;;;;;5072941;28;20032;-80
2022/01/25 06:47:58;;;;;;;31.10;11.40;;;4.30;71.30;;;;;;5073999;28;20025;-80
2022/01/25 06:50:23;;;;;;;23.60;11.23;;;4.30;71.30;;;;;;5074205;28;20468;-79
2022/01/25 06:52:50;;;;;;;22.80;11.00;;;4.40;71.10;;;;;;5073985;28;20024;-80
2022/01/25 06:55:17;;;;;;;21.70;9.77;;;4.30;70.80;;;;;;5074024;28;20390;-79
2022/01/25 06:57:46;;;;;;;20.13;9.57;;;4.30;70.60;;;;;;5074535;28;20035;-80
2022/01/25 07:00:30;;;;;;;20.83;9.57;;;4.30;70.30;;;;;;5074745;28;20024;-79
2022/01/25 07:02:56;;;;;;;18.63;9.77;;;4.30;70.40;;;;;;5073765;28;20055;-78
2022/01/25 07:05:21;;;;;;;24.73;11.07;;;4.30;70.60;;;;;;5074510;28;20056;-80
2022/01/25 07:07:47;;;;;;;22.30;11.00;;;4.30;70.90;;;;;;5074864;28;20048;-78
2022/01/25 07:10:13;;;;;;;20.73;11.43;;;4.30;70.90;;;;;;5074471;28;20027;-81
2022/01/25 07:12:39;;;;;;;20.83;11.60;;;4.30;70.80;;;;;;5074877;28;20025;-80
2022/01/25 07:15:05;;;;;;;21.17;12.53;;;4.30;70.40;;;;;;5071827;28;20055;-76
2022/01/25 07:17:31;;;;;;;21.17;12.67;;;4.40;70.10;;;;;;5072055;28;20523;-76
2022/01/25 07:19:57;;;;;;;27.17;13.07;;;4.40;69.70;;;;;;5072960;28;20044;-79
2022/01/25 07:22:23;;;;;;;28.23;14.33;;;4.40;69.70;;;;;;5074135;28;20103;-77
2022/01/25 07:24:48;;;;;;;29.47;13.60;;;4.40;69.60;;;;;;5073143;28;20074;-74
2022/01/25 07:27:14;;;;;;;41.63;15.13;;;4.40;69.70;;;;;;5074779;28;20032;-81
2022/01/25 07:29:40;;;;;;;22.03;12.63;;;4.40;69.80;;;;;;5074411;28;20028;-81
2022/01/25 07:32:06;;;;;;;25.23;11.60;;;4.40;70.00;;;;;;5074617;28;20358;-75
2022/01/25 07:34:31;;;;;;;19.63;11.10;;;4.40;69.90;;;;;;5073018;28;20017;-77
2022/01/25 07:36:57;;;;;;;19.90;10.50;;;4.40;69.90;;;;;;5070940;28;20043;-77
2022/01/25 07:39:23;;;;;;;21.53;9.57;;;4.40;70.00;;;;;;5069757;28;20441;-76
2022/01/25 07:41:49;;;;;;;22.23;9.17;;;4.50;70.00;;;;;;5072164;28;20024;-77
2022/01/25 07:44:15;;;;;;;16.53;9.33;;;4.50;69.70;;;;;;5072852;28;20023;-76
2022/01/25 07:46:41;;;;;;;12.77;9.77;;;4.50;69.00;;;;;;5073765;28;20545;-77
2022/01/25 07:49:07;;;;;;;18.40;9.80;;;4.60;68.50;;;;;;5073665;28;20016;-76
2022/01/25 07:51:35;;;;;;;18.57;8.63;;;4.60;68.40;;;;;;5073528;28;20028;-77
2022/01/25 07:54:01;;;;;;;11.03;7.53;;;4.60;68.40;;;;;;5059014;28;20537;-77
2022/01/25 07:56:27;;;;;;;14.70;9.00;;;4.70;68.20;;;;;;5073133;28;20024;-76
2022/01/25 07:58:53;;;;;;;19.50;10.03;;;4.80;68.00;;;;;;5073618;28;20441;-77
2022/01/25 08:01:19;;;;;;;16.80;9.50;;;4.80;67.90;;;;;;5073826;28;20024;-76
2022/01/25 08:03:46;;;;;;;14.80;8.03;;;4.80;68.00;;;;;;5073808;28;20021;-77
2022/01/25 08:06:13;;;;;;;20.13;8.37;;;4.80;68.00;;;;;;5072322;28;20032;-77
2022/01/25 08:08:39;;;;;;;11.53;7.60;;;4.80;67.80;;;;;;5070806;28;20103;-76
2022/01/25 08:11:06;;;;;;;30.67;8.87;;;4.90;67.60;;;;;;5072830;28;20025;-76
2022/01/25 08:13:31;;;;;;;14.70;9.30;;;4.90;67.30;;;;;;5073269;28;20124;-76
2022/01/25 08:15:57;;;;;;;15.53;8.77;;;4.90;67.20;;;;;;5073501;28;20450;-77
2022/01/25 08:18:23;;;;;;;15.07;8.60;;;4.90;67.20;;;;;;5071885;28;20017;-76
2022/01/25 08:20:49;;;;;;;15.03;8.17;;;5.00;67.10;;;;;;5072009;28;20059;-78
2022/01/25 08:23:14;;;;;;;13.00;8.77;;;5.10;66.80;;;;;;5072132;28;20024;-77
2022/01/25 08:25:40;;;;;;;16.50;8.37;;;5.10;66.80;;;;;;5072819;28;20024;-77
2022/01/25 08:28:06;;;;;;;11.23;7.53;;;5.10;66.70;;;;;;5072534;28;20145;-76
2022/01/25 08:30:32;;;;;;;13.63;7.93;;;5.10;66.70;;;;;;5072937;28;20024;-76
2022/01/25 08:32:57;;;;;;;11.63;7.33;;;5.20;66.10;;;;;;5072743;28;20027;-77
2022/01/25 08:35:24;;;;;;;13.33;7.67;;;5.20;66.20;;;;;;5072063;28;20096;-76
2022/01/25 08:37:49;;;;;;;12.13;7.77;;;5.20;66.00;;;;;;5072608;28;20017;-76
2022/01/25 08:40:15;;;;;;;11.67;7.13;;;5.30;65.90;;;;;;5073109;28;20090;-75
2022/01/25 08:42:41;;;;;;;12.07;7.10;;;5.30;65.90;;;;;;5072466;28;20096;-76
2022/01/25 08:45:08;;;;;;;11.07;7.30;;;5.30;66.00;;;;;;5069517;28;20032;-76
2022/01/25 08:47:34;;;;;;;11.40;7.73;;;5.40;66.10;;;;;;5071734;28;20651;-76
2022/01/25 08:49:59;;;;;;;11.93;7.57;;;5.40;65.90;;;;;;5072531;28;20108;-75
2022/01/25 08:52:27;;;;;;;12.03;7.33;;;5.40;65.70;;;;;;5072506;28;20051;-76
2022/01/25 08:54:53;;;;;;;13.17;7.73;;;5.50;65.50;;;;;;5072232;28;20086;-75
2022/01/25 08:57:19;;;;;;;14.07;7.63;;;5.50;65.50;;;;;;5071339;28;20028;-75
2022/01/25 08:59:45;;;;;;;22.57;11.40;;;5.50;65.50;;;;;;5072985;28;20025;-76
2022/01/25 09:02:11;;;;;;;16.60;7.90;;;5.60;65.50;;;;;;5072501;28;20032;-76
2022/01/25 09:04:37;;;;;;;17.27;7.57;;;5.60;65.40;;;;;;5072386;28;20098;-76
2022/01/25 09:07:03;;;;;;;14.40;7.47;;;5.60;65.10;;;;;;5071421;28;20045;-76
2022/01/25 09:09:28;;;;;;;14.97;8.37;;;5.70;65.00;;;;;;5072560;28;20074;-75
2022/01/25 09:11:56;;;;;;;10.80;7.00;;;5.70;64.90;;;;;;5072702;28;20035;-76
2022/01/25 09:14:22;;;;;;;15.77;7.50;;;5.70;64.80;;;;;;5071659;28;20029;-75
2022/01/25 09:16:48;;;;;;;10.63;6.93;;;5.70;64.70;;;;;;5072675;28;20123;-76
2022/01/25 09:19:15;;;;;;;14.77;7.73;;;5.80;64.30;;;;;;5071557;28;20114;-76
2022/01/25 09:21:40;;;;;;;11.93;7.23;;;5.80;64.00;;;;;;5070976;28;20491;-76
2022/01/25 09:24:06;;;;;;;12.80;7.10;;;5.80;63.80;;;;;;5072149;28;20016;-76
2022/01/25 09:26:32;;;;;;;9.67;6.97;;;5.80;64.00;;;;;;5072589;28;20400;-76
2022/01/25 09:28:58;;;;;;;10.63;6.63;;;5.90;64.20;;;;;;5072418;28;20024;-76
2022/01/25 09:31:24;;;;;;;11.43;7.00;;;5.90;63.50;;;;;;5072676;28;20035;-76
2022/01/25 09:33:51;;;;;;;11.67;7.13;;;5.90;63.50;;;;;;5076839;28;20023;-76
2022/01/25 09:36:17;;;;;;;9.13;6.57;;;5.90;63.90;;;;;;5076520;28;20481;-76
2022/01/25 09:38:43;;;;;;;15.80;7.13;;;6.00;64.00;;;;;;5075262;28;20028;-75
2022/01/25 09:41:09;;;;;;;11.43;7.57;;;6.00;63.90;;;;;;5074309;28;20392;-76
2022/01/25 09:43:34;;;;;;;11.67;7.80;;;6.10;64.20;;;;;;5076087;28;20078;-76
2022/01/25 09:46:00;;;;;;;13.37;8.30;;;6.10;64.10;;;;;;5075291;28;20032;-77
2022/01/25 09:48:26;;;;;;;17.50;6.97;;;6.20;64.20;;;;;;5074303;28;20082;-76
2022/01/25 09:50:52;;;;;;;12.17;7.47;;;6.20;63.90;;;;;;5075188;28;20099;-76
2022/01/25 09:53:18;;;;;;;11.87;7.83;;;6.30;63.50;;;;;;5075177;28;20503;-77
2022/01/25 09:55:45;;;;;;;15.67;8.17;;;6.30;63.50;;;;;;5075569;28;20017;-76
2022/01/25 09:58:13;;;;;;;13.83;8.70;;;6.30;63.60;;;;;;5075594;28;20032;-77
2022/01/25 10:00:41;;;;;;;15.80;9.30;;;6.30;63.70;;;;;;5075739;28;20059;-76
2022/01/25 10:05:38;;;;;;;14.50;9.23;;;6.40;63.50;;;;;;5075571;28;20127;-76
2022/01/25 10:08:06;;;;;;;13.67;9.33;;;6.50;63.20;;;;;;5075424;28;20028;-77
2022/01/25 10:10:38;;;;;;;13.20;9.10;;;6.50;63.20;;;;;;5075551;28;20032;-75
2022/01/25 10:13:19;;;;;;;14.43;8.90;;;6.50;63.30;;;;;;5074577;28;20024;-77
2022/01/25 10:15:46;;;;;;;12.90;8.50;;;6.60;63.30;;;;;;5073858;28;20315;-76
2022/01/25 10:18:12;;;;;;;16.80;9.00;;;6.60;63.20;;;;;;5074154;28;20436;-76
2022/01/25 10:20:41;;;;;;;14.43;9.03;;;6.60;63.40;;;;;;5075629;28;20071;-76
2022/01/25 10:23:18;;;;;;;16.00;8.73;;;6.70;63.50;;;;;;5075662;28;20029;-76
2022/01/25 10:25:47;;;;;;;12.83;8.70;;;6.70;63.60;;;;;;5075717;28;20032;-75
2022/01/25 10:28:14;;;;;;;12.43;8.77;;;6.80;63.40;;;;;;5075466;28;20067;-76
2022/01/25 10:30:44;;;;;;;15.30;9.27;;;6.80;63.10;;;;;;5075718;28;20091;-76
2022/01/25 10:33:25;;;;;;;11.07;8.50;;;6.90;63.30;;;;;;5075858;28;20024;-76
2022/01/25 10:35:52;;;;;;;10.60;6.80;;;7.00;63.20;;;;;;5075789;28;20052;-76
2022/01/25 10:38:24;;;;;;;11.53;6.50;;;7.00;62.80;;;;;;5075622;28;20037;-76
2022/01/25 10:41:16;;;;;;;11.53;6.70;;;7.10;62.50;;;;;;5075554;28;20031;-75
2022/01/25 10:43:44;;;;;;;12.38;7.63;;;7.10;62.70;;;;;;5069431;28;20043;-76
2022/01/25 10:46:26;;;;;;;10.47;7.60;;;7.20;62.60;;;;;;5075589;28;20036;-76
2022/01/25 10:48:55;;;;;;;12.98;7.93;;;7.20;62.90;;;;;;5075661;28;20349;-76
2022/01/25 10:51:25;;;;;;;12.20;7.93;;;7.30;63.00;;;;;;5075555;28;20043;-75
2022/01/25 10:54:02;;;;;;;10.40;7.30;;;7.30;62.60;;;;;;5075188;28;20025;-75
2022/01/25 10:56:50;;;;;;;11.27;7.87;;;7.40;62.70;;;;;;5075362;28;20109;-76
2022/01/25 10:59:23;;;;;;;12.03;7.20;;;7.50;63.20;;;;;;5073389;28;20020;-76
2022/01/25 11:01:52;;;;;;;12.30;8.20;;;7.50;63.00;;;;;;5074841;28;20441;-76
2022/01/25 11:04:22;;;;;;;14.00;7.90;;;7.60;62.90;;;;;;5074524;28;20085;-76
2022/01/25 11:06:55;;;;;;;12.23;9.40;;;7.70;62.30;;;;;;5073901;28;20469;-76
2022/01/25 11:09:24;;;;;;;12.93;9.20;;;7.70;62.30;;;;;;5074291;28;20031;-76
2022/01/25 11:11:56;;;;;;;14.57;9.27;;;7.70;62.20;;;;;;5073742;28;20032;-77
2022/01/25 11:17:06;;;;;;;13.17;9.50;;;7.70;62.10;;;;;;5072783;28;20527;-76
2022/01/25 11:19:32;;;;;;;24.57;11.50;;;7.70;61.70;;;;;;5073501;28;20052;-78
2022/01/25 11:21:59;;;;;;;15.80;10.77;;;7.70;61.80;;;;;;5073324;28;20058;-79
2022/01/25 11:24:26;;;;;;;12.97;10.23;;;7.70;61.80;;;;;;5074723;28;20024;-79
2022/01/25 11:26:53;;;;;;;14.50;10.47;;;7.70;61.70;;;;;;5074684;28;20473;-81
2022/01/25 11:29:19;;;;;;;16.17;10.10;;;7.70;61.70;;;;;;5074456;28;20077;-80
2022/01/25 11:31:51;;;;;;;21.80;10.50;;;7.70;61.80;;;;;;5073754;28;20473;-78
2022/01/25 11:34:19;;;;;;;14.23;10.33;;;7.80;61.60;;;;;;5073190;28;20401;-80
2022/01/25 11:36:53;;;;;;;22.53;10.43;;;7.80;61.70;;;;;;5073251;28;20029;-80
2022/01/25 11:39:22;;;;;;;16.53;11.73;;;7.80;61.90;;;;;;5074198;28;20024;-82
2022/01/25 11:41:49;;;;;;;19.17;11.50;;;7.90;61.90;;;;;;5073565;28;20431;-80
2022/01/25 11:44:18;;;;;;;23.30;12.27;;;8.00;61.80;;;;;;5074515;28;20468;-80
2022/01/25 11:46:50;;;;;;;23.23;14.17;;;8.00;61.80;;;;;;5074529;28;20044;-80
2022/01/25 11:49:20;;;;;;;19.33;14.27;;;8.00;61.30;;;;;;5074102;28;20104;-80
2022/01/25 11:52:10;;;;;;;20.33;13.20;;;8.10;61.20;;;;;;5073908;28;20025;-80
2022/01/25 11:54:36;;;;;;;20.10;12.47;;;8.10;61.10;;;;;;5073978;28;20104;-80
2022/01/25 11:57:12;;;;;;;17.80;13.20;;;8.10;61.20;;;;;;5073208;28;20029;-80
2022/01/25 11:59:38;;;;;;;18.53;12.53;;;8.20;61.10;;;;;;5073895;28;20029;-81
2022/01/25 12:02:04;;;;;;;22.73;13.00;;;8.20;61.00;;;;;;5074084;28;20031;-80
2022/01/25 12:04:30;;;;;;;18.43;13.03;;;8.30;61.20;;;;;;5073767;28;20043;-80
2022/01/25 12:07:12;;;;;;;22.33;15.00;;;8.40;60.90;;;;;;5073827;28;20032;-80
2022/01/25 12:09:47;;;;;;;24.50;15.67;;;8.40;60.60;;;;;;5073797;28;20078;-81
2022/01/25 12:12:15;;;;;;;20.30;13.77;;;8.50;60.20;;;;;;5073934;28;20487;-81
2022/01/25 12:14:49;;;;;;;20.60;14.60;;;8.50;60.30;;;;;;5073684;28;20532;-81
2022/01/25 12:17:23;;;;;;;21.27;15.20;;;8.60;60.40;;;;;;5073818;28;20795;-81
2022/01/25 12:19:53;;;;;;;24.27;15.70;;;8.70;60.60;;;;;;5073533;28;20480;-81
2022/01/25 12:22:40;;;;;;;21.30;14.50;;;8.70;60.00;;;;;;5073044;28;20056;-81
2022/01/25 12:28:03;;;;;;;21.70;15.97;;;8.80;60.20;;;;;;5072525;28;20048;-80
2022/01/25 12:30:34;;;;;;;22.77;17.03;;;8.90;59.30;;;;;;5070928;28;20052;-80
2022/01/25 12:33:03;;;;;;;23.87;17.30;;;9.00;59.00;;;;;;5070509;28;20119;-80
2022/01/25 12:35:35;;;;;;;20.40;15.33;;;9.00;59.00;;;;;;5072599;28;20063;-80
2022/01/25 12:38:09;;;;;;;22.23;15.82;;;9.00;58.50;;;;;;5073163;28;20555;-82
2022/01/25 12:40:47;;;;;;;25.60;16.03;;;9.10;58.80;;;;;;5073552;28;20025;-82
2022/01/25 12:43:23;;;;;;;23.80;17.30;;;9.10;58.90;;;;;;5072647;28;20025;-81
2022/01/25 12:46:01;;;;;;;22.07;16.90;;;9.10;59.20;;;;;;5072860;28;20078;-81
2022/01/25 12:48:30;;;;;;;23.73;16.20;;;9.20;58.30;;;;;;5072844;28;20473;-81
2022/01/25 12:50:58;;;;;;;23.37;16.27;;;9.20;58.50;;;;;;5072797;28;20032;-82
2022/01/25 12:53:27;;;;;;;25.03;17.47;;;9.20;58.30;;;;;;5073154;28;20032;-81
2022/01/25 12:55:56;;;;;;;22.73;16.37;;;9.30;58.60;;;;;;5072831;28;20480;-81
2022/01/25 12:58:24;;;;;;;23.20;16.93;;;9.30;58.20;;;;;;5072894;28;20055;-81
2022/01/25 13:00:52;;;;;;;21.17;15.73;;;9.40;58.10;;;;;;5072972;28;20051;-80
2022/01/25 13:03:32;;;;;;;20.97;16.33;;;9.40;58.30;;;;;;5072883;28;20021;-81
2022/01/25 13:06:50;;;;;;;24.90;16.53;;;9.40;58.70;;;;;;5072470;28;20504;-78
2022/01/25 13:09:33;;;;;;;20.30;15.80;;;9.40;58.60;;;;;;5070950;28;20048;-78
2022/01/25 13:17:25;;;;;;;26.77;16.53;;;9.40;58.30;;;;;;5072761;28;20072;-78
2022/01/25 13:19:59;;;;;;;24.87;17.00;;;9.40;58.50;;;;;;5072471;28;20025;-78
2022/01/25 13:22:32;;;;;;;23.70;15.87;;;9.50;58.50;;;;;;5072607;28;20017;-79
2022/01/25 13:27:51;;;;;;;22.30;16.17;;;9.40;58.30;;;;;;5072786;28;20040;-78
2022/01/25 13:30:45;;;;;;;23.40;17.03;;;9.50;58.60;;;;;;5072874;28;20028;-80
2022/01/25 13:33:17;;;;;;;24.07;16.40;;;9.50;58.50;;;;;;5069913;28;20033;-79
2022/01/25 13:35:48;;;;;;;23.00;17.50;;;9.50;58.20;;;;;;5070553;28;20032;-79
2022/01/25 13:38:20;;;;;;;20.43;16.00;;;9.40;57.90;;;;;;5072529;28;20024;-78
2022/01/25 13:45:56;;;;;;;22.80;16.57;;;9.40;57.40;;;;;;5072343;28;20035;-78
2022/01/25 13:48:24;;;;;;;;;;;9.40;57.40;;;;;;5073186;28;20043;-79
2022/01/25 13:51:00;;;;;;;23.93;16.13;;;9.40;57.20;;;;;;5072786;28;19905;-81
2022/01/25 13:53:27;;;;;;;22.30;16.67;;;9.40;57.70;;;;;;5072677;28;20031;-81
2022/01/25 13:55:56;;;;;;;23.07;16.37;;;9.30;57.90;;;;;;5072672;28;20028;-81
2022/01/25 13:58:26;;;;;;;24.70;16.90;;;9.30;57.90;;;;;;5072669;28;20401;-79
2022/01/25 14:00:54;;;;;;;25.50;15.23;;;9.30;57.90;;;;;;5072644;28;20393;-81
2022/01/25 14:03:33;;;;;;;19.27;14.10;;;9.30;57.70;;;;;;5072269;28;20025;-82
2022/01/25 14:05:59;;;;;;;18.50;13.57;;;9.30;57.20;;;;;;5071186;28;20086;-79
2022/01/25 14:08:42;;;;;;;25.33;15.40;;;9.30;57.60;;;;;;5071775;28;20028;-82
2022/01/25 14:11:33;;;;;;;;;;;9.30;57.40;;;;;;5071998;28;20035;-82
2022/01/25 14:24:56;;;;;;;43.63;27.60;;;9.10;57.60;;;;;;5075913;28;20024;-82
2022/01/25 14:27:31;;;;;;;29.33;19.50;;;9.10;57.80;;;;;;5075777;28;20055;-81
2022/01/25 14:29:57;;;;;;;38.43;30.07;;;9.10;58.10;;;;;;5075598;28;20024;-82
2022/01/25 14:32:32;;;;;;;41.30;28.93;;;9.10;58.20;;;;;;5075528;28;20078;-82
2022/01/25 14:35:08;;;;;;;27.70;17.93;;;9.10;58.30;;;;;;5075899;28;20026;-80
2022/01/25 14:37:34;;;;;;;21.40;15.30;;;9.10;57.90;;;;;;5075912;28;20537;-81
2022/01/25 14:40:09;;;;;;;24.53;17.30;;;9.10;57.50;;;;;;5075864;28;20040;-81
2022/01/25 14:42:41;;;;;;;29.43;16.17;;;9.00;57.70;;;;;;5074395;28;20103;-81
2022/01/25 14:45:19;;;;;;;24.50;15.68;;;9.00;58.00;;;;;;5075933;28;20100;-81
2022/01/25 14:47:47;;;;;;;24.67;15.83;;;9.00;58.20;;;;;;5075792;28;20028;-80
2022/01/25 14:50:25;;;;;;;25.37;16.33;;;9.00;59.10;;;;;;5074401;28;20032;-81
2022/01/25 14:53:07;;;;;;;23.10;16.03;;;8.90;60.00;;;;;;5074289;28;20409;-81
2022/01/25 14:55:36;;;;;;;30.60;17.73;;;8.90;60.80;;;;;;5075473;28;20028;-80
2022/01/25 15:00:51;;;;;;;25.23;16.93;;;8.80;62.00;;;;;;5075341;28;20036;-80
2022/01/25 15:03:19;;;;;;;27.40;17.10;;;8.80;62.50;;;;;;5075744;28;20111;-79
2022/01/25 15:05:45;;;;;;;25.10;17.27;;;8.70;62.80;;;;;;5075392;28;20060;-79
2022/01/25 15:08:12;;;;;;;27.60;18.60;;;8.70;63.90;;;;;;5075240;28;20103;-80
2022/01/25 15:10:45;;;;;;;25.13;17.93;;;8.60;63.50;;;;;;5075392;28;20020;-80
2022/01/25 15:13:23;;;;;;;29.77;17.90;;;8.60;63.60;;;;;;5075173;28;20020;-80
2022/01/25 15:15:56;;;;;;;24.37;17.07;;;8.60;63.80;;;;;;5075084;28;20053;-80